createdAt,value
2018-09-17T00:01:16.453Z,13.97
2018-09-17T00:03:45.974Z,13.78
2018-09-17T00:06:15.106Z,13.83
2018-09-17T00:08:44.253Z,14.37
2018-09-17T00:11:13.557Z,15.43
2018-09-17T00:13:42.854Z,14.75
2018-09-17T00:16:12.050Z,13.88
2018-09-17T00:18:41.222Z,14.13
2018-09-17T00:21:10.455Z,16.97
2018-09-17T00:23:39.709Z,14.27
2018-09-17T00:26:09.025Z,15.20
2018-09-17T00:28:38.233Z,15.15
2018-09-17T00:31:07.393Z,17.10
2018-09-17T00:33:36.633Z,15.53
2018-09-17T00:36:05.746Z,14.05
2018-09-17T00:38:34.925Z,14.17
2018-09-17T00:41:04.757Z,15.80
2018-09-17T00:43:33.805Z,16.60
2018-09-17T00:46:02.924Z,17.10
2018-09-17T00:48:31.945Z,14.83
2018-09-17T00:51:00.955Z,15.70
2018-09-17T00:53:30.134Z,16.80
2018-09-17T00:55:59.354Z,16.75
2018-09-17T00:58:28.486Z,14.30
2018-09-17T01:00:57.755Z,13.87
2018-09-17T01:03:26.913Z,14.20
2018-09-17T01:05:56.004Z,13.83
2018-09-17T01:08:25.095Z,12.80
2018-09-17T01:10:54.269Z,14.40
2018-09-17T01:13:23.606Z,14.83
2018-09-17T01:15:52.849Z,12.97
2018-09-17T01:18:22.045Z,14.43
2018-09-17T01:20:51.094Z,14.23
2018-09-17T01:23:20.296Z,13.00
2018-09-17T01:25:49.575Z,13.57
2018-09-17T01:28:18.826Z,17.25
2018-09-17T01:30:48.492Z,13.03
2018-09-17T01:33:17.773Z,12.80
2018-09-17T01:35:47.442Z,12.50
2018-09-17T01:38:16.805Z,13.93
2018-09-17T01:40:46.146Z,16.00
2018-09-17T01:43:15.329Z,17.37
2018-09-17T01:45:44.404Z,15.00
2018-09-17T01:48:13.465Z,17.33
2018-09-17T01:50:42.646Z,14.00
2018-09-17T01:53:12.042Z,18.07
2018-09-17T01:55:41.249Z,17.70
2018-09-17T01:58:10.515Z,21.57
2018-09-17T02:00:39.697Z,21.47
2018-09-17T02:03:09.036Z,14.20
2018-09-17T02:05:38.279Z,15.17
2018-09-17T02:08:07.892Z,15.80
2018-09-17T02:10:36.834Z,18.67
2018-09-17T02:13:06.061Z,19.57
2018-09-17T02:15:35.090Z,21.57
2018-09-17T02:18:04.255Z,17.87
2018-09-17T02:20:33.489Z,17.47
2018-09-17T02:23:02.658Z,18.93
2018-09-17T02:25:31.843Z,20.10
2018-09-17T02:28:01.034Z,19.80
2018-09-17T02:30:30.859Z,20.93
2018-09-17T02:33:00.069Z,19.77
2018-09-17T02:35:29.221Z,21.70
2018-09-17T02:37:58.348Z,18.50
2018-09-17T02:40:27.490Z,18.07
2018-09-17T02:42:56.570Z,18.83
2018-09-17T02:45:25.894Z,23.18
2018-09-17T02:47:55.765Z,23.07
2018-09-17T02:50:24.911Z,19.13
2018-09-17T02:52:54.106Z,15.83
2018-09-17T02:55:23.231Z,16.80
2018-09-17T02:57:52.485Z,18.10
2018-09-17T03:00:21.844Z,17.50
2018-09-17T03:02:52.494Z,16.83
2018-09-17T03:05:21.941Z,22.10
2018-09-17T03:07:51.157Z,17.13
2018-09-17T03:10:20.213Z,16.90
2018-09-17T03:12:49.595Z,16.32
2018-09-17T03:15:29.643Z,19.27
2018-09-17T03:17:58.913Z,17.57
2018-09-17T03:20:28.305Z,17.23
2018-09-17T03:22:57.470Z,17.17
2018-09-17T03:25:26.741Z,16.87
2018-09-17T03:27:55.974Z,18.23
2018-09-17T03:30:25.219Z,18.63
2018-09-17T03:32:54.417Z,17.93
2018-09-17T03:35:23.697Z,16.60
2018-09-17T03:37:52.938Z,16.77
2018-09-17T03:40:22.226Z,18.57
2018-09-17T03:42:51.233Z,20.87
2018-09-17T03:45:20.418Z,17.17
2018-09-17T03:47:49.614Z,18.47
2018-09-17T03:50:18.828Z,17.27
2018-09-17T03:52:47.926Z,18.90
2018-09-17T03:55:17.048Z,19.53
2018-09-17T03:57:46.114Z,17.27
2018-09-17T04:00:15.170Z,19.60
2018-09-17T04:02:44.779Z,16.87
2018-09-17T04:05:13.989Z,18.57
2018-09-17T04:07:43.229Z,21.97
2018-09-17T04:10:12.392Z,20.33
2018-09-17T04:12:41.481Z,16.67
2018-09-17T04:15:10.666Z,16.97
2018-09-17T04:17:39.769Z,17.50
2018-09-17T04:20:09.296Z,20.25
2018-09-17T04:22:38.346Z,17.17
2018-09-17T04:25:07.641Z,19.80
2018-09-17T04:27:36.921Z,16.80
2018-09-17T04:30:06.319Z,22.37
2018-09-17T04:32:35.746Z,18.67
2018-09-17T04:35:06.132Z,19.75
2018-09-17T04:37:36.162Z,18.80
2018-09-17T04:40:05.442Z,17.10
2018-09-17T04:42:34.986Z,18.77
2018-09-17T04:45:04.157Z,17.60
2018-09-17T04:47:33.766Z,19.13
2018-09-17T04:50:02.949Z,16.90
2018-09-17T04:52:32.722Z,18.70
2018-09-17T04:55:02.298Z,18.73
2018-09-17T04:57:32.739Z,16.57
2018-09-17T05:00:01.796Z,16.77
2018-09-17T05:02:31.079Z,16.60
2018-09-17T05:05:00.271Z,19.73
2018-09-17T05:07:29.406Z,17.27
2018-09-17T05:09:58.514Z,15.80
2018-09-17T05:12:27.778Z,16.57
2018-09-17T05:14:57.397Z,17.97
2018-09-17T05:17:26.666Z,17.37
2018-09-17T05:19:55.842Z,19.70
2018-09-17T05:22:24.993Z,16.60
2018-09-17T05:24:54.293Z,18.30
2018-09-17T05:27:23.600Z,20.40
2018-09-17T05:29:52.826Z,16.80
2018-09-17T05:32:22.094Z,17.57
2018-09-17T05:34:51.397Z,16.13
2018-09-17T05:37:20.714Z,13.17
2018-09-17T05:39:49.798Z,17.20
2018-09-17T05:42:19.002Z,13.90
2018-09-17T05:44:48.186Z,14.65
2018-09-17T05:47:17.274Z,15.10
2018-09-17T05:49:46.611Z,15.37
2018-09-17T05:52:15.809Z,14.20
2018-09-17T05:54:45.145Z,16.85
2018-09-17T05:57:14.241Z,15.33
2018-09-17T05:59:43.458Z,20.07
2018-09-17T06:02:12.757Z,18.90
2018-09-17T06:04:42.053Z,15.47
2018-09-17T06:07:11.185Z,17.70
2018-09-17T06:09:40.176Z,15.00
2018-09-17T06:12:09.500Z,14.87
2018-09-17T06:14:38.691Z,15.47
2018-09-17T06:17:07.853Z,17.00
2018-09-17T06:19:36.997Z,14.75
2018-09-17T06:22:06.140Z,14.90
2018-09-17T06:24:35.321Z,19.53
2018-09-17T06:27:04.525Z,14.50
2018-09-17T06:29:33.672Z,15.03
2018-09-17T06:32:03.000Z,14.40
2018-09-17T06:34:32.014Z,15.47
2018-09-17T06:37:01.157Z,14.93
2018-09-17T06:39:30.312Z,14.30
2018-09-17T06:41:59.526Z,13.33
2018-09-17T06:44:28.882Z,14.35
2018-09-17T06:46:58.053Z,14.45
2018-09-17T06:49:27.288Z,14.43
2018-09-17T06:51:56.637Z,15.50
2018-09-17T06:54:25.837Z,16.57
2018-09-17T06:56:54.918Z,24.47
2018-09-17T06:59:24.070Z,18.17
2018-09-17T07:01:53.246Z,18.30
2018-09-17T07:04:22.474Z,15.50
2018-09-17T07:06:51.725Z,13.90
2018-09-17T07:09:20.939Z,13.58
2018-09-17T07:11:50.026Z,14.13
2018-09-17T07:14:19.315Z,14.50
2018-09-17T07:16:48.508Z,13.20
2018-09-17T07:19:17.776Z,12.30
2018-09-17T07:21:46.887Z,14.43
2018-09-17T07:24:17.006Z,15.48
2018-09-17T07:26:46.202Z,17.10
2018-09-17T07:29:15.483Z,12.07
2018-09-17T07:31:44.733Z,13.58
2018-09-17T07:34:14.045Z,11.63
2018-09-17T07:36:43.537Z,13.72
2018-09-17T07:39:13.041Z,11.03
2018-09-17T07:41:42.254Z,15.20
2018-09-17T07:44:11.425Z,13.05
2018-09-17T07:46:40.526Z,13.75
2018-09-17T07:49:09.717Z,11.07
2018-09-17T07:51:38.720Z,11.75
2018-09-17T07:54:07.865Z,14.30
2018-09-17T07:56:36.927Z,12.47
2018-09-17T07:59:06.074Z,11.78
2018-09-17T08:01:35.167Z,10.85
2018-09-17T08:04:04.317Z,16.25
2018-09-17T08:06:33.470Z,11.88
2018-09-17T08:09:02.725Z,10.60
2018-09-17T08:11:31.802Z,11.80
2018-09-17T08:14:00.817Z,11.18
2018-09-17T08:16:30.010Z,11.80
2018-09-17T08:18:59.170Z,13.18
2018-09-17T08:21:28.245Z,9.70
2018-09-17T08:23:57.428Z,11.88
2018-09-17T08:26:26.508Z,12.43
2018-09-17T08:28:55.555Z,10.65
2018-09-17T08:31:24.980Z,10.72
2018-09-17T08:33:54.133Z,10.98
2018-09-17T08:36:23.238Z,12.98
2018-09-17T08:38:52.494Z,11.53
2018-09-17T08:41:21.578Z,8.55
2018-09-17T08:43:50.807Z,8.85
2018-09-17T08:46:19.929Z,13.35
2018-09-17T08:48:49.074Z,8.48
2018-09-17T08:51:18.247Z,9.83
2018-09-17T08:53:47.532Z,10.65
2018-09-17T08:56:20.570Z,7.12
2018-09-17T08:58:54.873Z,11.33
2018-09-17T09:01:29.849Z,12.80
2018-09-17T09:04:04.018Z,7.70
2018-09-17T09:06:38.170Z,10.03
2018-09-17T09:09:09.786Z,8.25
2018-09-17T09:11:44.054Z,15.10
2018-09-17T09:14:43.617Z,10.43
2018-09-17T09:17:12.967Z,8.15
2018-09-17T09:19:41.997Z,8.75
2018-09-17T09:22:11.238Z,15.20
2018-09-17T09:24:40.226Z,8.23
2018-09-17T09:27:09.446Z,10.85
2018-09-17T09:29:38.494Z,9.83
2018-09-17T09:32:07.723Z,12.25
2018-09-17T09:34:36.876Z,9.55
2018-09-17T09:37:05.899Z,8.45
2018-09-17T09:39:34.896Z,13.58
2018-09-17T09:42:03.927Z,9.88
2018-09-17T09:44:33.142Z,7.67
2018-09-17T09:47:02.355Z,8.35
2018-09-17T09:49:31.522Z,15.55
2018-09-17T09:52:00.625Z,6.47
2018-09-17T09:54:29.813Z,9.15
2018-09-17T09:56:58.998Z,7.92
2018-09-17T09:59:28.205Z,7.22
2018-09-17T10:02:02.526Z,8.50
2018-09-17T10:04:31.636Z,6.97
2018-09-17T10:07:00.809Z,7.03
2018-09-17T10:09:35.090Z,9.13
2018-09-17T10:12:09.269Z,7.42
2018-09-17T10:16:45.798Z,6.47
2018-09-17T10:19:19.799Z,7.87
2018-09-17T10:21:48.961Z,7.08
2018-09-17T10:24:18.062Z,8.65
2018-09-17T10:26:47.202Z,6.97
2018-09-17T10:29:17.059Z,7.08
2018-09-17T10:31:46.603Z,7.55
2018-09-17T10:34:16.289Z,7.22
2018-09-17T10:36:45.532Z,6.70
2018-09-17T10:39:15.192Z,9.80
2018-09-17T10:41:44.447Z,6.92
2018-09-17T10:44:13.673Z,8.53
2018-09-17T10:46:42.714Z,7.25
2018-09-17T10:49:11.885Z,8.73
2018-09-17T10:51:41.557Z,7.85
2018-09-17T10:54:10.615Z,8.38
2018-09-17T10:56:39.662Z,7.03
2018-09-17T10:59:08.794Z,7.45
2018-09-17T11:01:38.053Z,6.92
2018-09-17T11:04:07.254Z,7.28
2018-09-17T11:06:36.345Z,10.30
2018-09-17T11:09:08.122Z,6.90
2018-09-17T11:11:37.124Z,8.23
2018-09-17T11:14:06.474Z,7.92
2018-09-17T11:16:35.565Z,9.58
2018-09-17T11:19:04.661Z,7.03
2018-09-17T11:21:33.776Z,8.60
2018-09-17T11:24:02.860Z,9.75
2018-09-17T11:26:32.067Z,8.15
2018-09-17T11:29:01.165Z,10.85
2018-09-17T11:31:30.224Z,7.50
2018-09-17T11:33:59.258Z,7.08
2018-09-17T11:36:28.437Z,8.50
2018-09-17T11:38:57.505Z,7.33
2018-09-17T11:41:26.768Z,7.80
2018-09-17T11:43:55.953Z,7.53
2018-09-17T11:46:25.470Z,7.47
2018-09-17T11:48:54.578Z,7.17
2018-09-17T11:51:23.769Z,7.85
2018-09-17T11:53:53.090Z,7.12
2018-09-17T11:56:22.235Z,6.83
2018-09-17T11:58:51.234Z,6.62
2018-09-17T12:01:25.662Z,9.90
2018-09-17T12:03:59.905Z,7.37
2018-09-17T12:06:34.734Z,6.15
2018-09-17T12:09:05.307Z,6.45
2018-09-17T12:11:35.351Z,7.95
2018-09-17T12:14:04.564Z,10.40
2018-09-17T12:16:33.750Z,11.75
2018-09-17T12:19:02.861Z,7.55
2018-09-17T12:21:31.825Z,7.30
2018-09-17T12:24:01.189Z,8.35
2018-09-17T12:26:30.320Z,8.75
2018-09-17T12:28:59.382Z,6.67
2018-09-17T12:31:28.591Z,9.95
2018-09-17T12:33:57.776Z,7.05
2018-09-17T12:36:26.893Z,6.12
2018-09-17T12:38:55.989Z,7.00
2018-09-17T12:41:25.132Z,11.83
2018-09-17T12:43:54.469Z,7.42
2018-09-17T12:46:23.681Z,8.60
2018-09-17T12:48:52.989Z,7.42
2018-09-17T12:51:22.009Z,7.83
2018-09-17T12:53:51.219Z,7.45
2018-09-17T12:56:20.375Z,9.73
2018-09-17T12:58:49.598Z,7.40
2018-09-17T13:01:18.838Z,7.70
2018-09-17T13:03:48.026Z,8.78
2018-09-17T13:06:17.187Z,9.18
2018-09-17T13:08:46.369Z,8.78
2018-09-17T13:11:15.515Z,8.60
2018-09-17T13:13:44.673Z,7.65
2018-09-17T13:16:13.693Z,6.90
2018-09-17T13:18:42.775Z,7.12
2018-09-17T13:21:11.987Z,8.53
2018-09-17T13:23:41.246Z,7.45
2018-09-17T13:26:10.271Z,7.60
2018-09-17T13:28:39.334Z,9.55
2018-09-17T13:31:08.433Z,9.38
2018-09-17T13:33:37.676Z,7.78
2018-09-17T13:36:06.841Z,7.00
2018-09-17T13:38:36.392Z,7.15
2018-09-17T13:41:05.529Z,9.20
2018-09-17T13:43:34.621Z,6.85
2018-09-17T13:46:04.556Z,6.83
2018-09-17T13:48:33.859Z,7.62
2018-09-17T13:51:03.183Z,9.43
2018-09-17T13:53:33.143Z,8.65
2018-09-17T13:56:03.410Z,6.70
2018-09-17T13:58:32.725Z,7.10
2018-09-17T14:01:01.970Z,6.90
2018-09-17T14:03:31.196Z,7.08
2018-09-17T14:06:00.447Z,7.30
2018-09-17T14:08:29.755Z,8.18
2018-09-17T14:10:58.973Z,7.67
2018-09-17T14:13:28.225Z,8.88
2018-09-17T14:16:06.774Z,9.53
2018-09-17T14:18:36.715Z,6.92
2018-09-17T14:21:05.967Z,6.92
2018-09-17T14:23:35.367Z,9.85
2018-09-17T14:26:04.533Z,7.65
2018-09-17T14:28:33.594Z,6.90
2018-09-17T14:31:02.973Z,8.33
2018-09-17T14:33:37.557Z,8.53
2018-09-17T14:36:06.884Z,7.62
2018-09-17T14:38:36.009Z,11.93
2018-09-17T14:41:05.154Z,7.92
2018-09-17T14:43:34.450Z,9.28
2018-09-17T14:46:03.632Z,7.45
2018-09-17T14:48:32.894Z,7.85
2018-09-17T14:51:02.068Z,9.38
2018-09-17T14:53:31.081Z,7.47
2018-09-17T14:56:00.914Z,7.55
2018-09-17T14:58:30.478Z,7.03
2018-09-17T15:00:59.662Z,7.40
2018-09-17T15:03:28.923Z,7.22
2018-09-17T15:05:58.222Z,10.08
2018-09-17T15:08:27.398Z,6.95
2018-09-17T15:10:56.654Z,8.35
2018-09-17T15:13:26.255Z,6.90
2018-09-17T15:15:59.434Z,10.88
2018-09-17T15:18:28.595Z,6.50
2018-09-17T15:20:57.707Z,8.48
2018-09-17T15:23:26.884Z,9.10
2018-09-17T15:25:56.169Z,7.62
2018-09-17T15:28:25.578Z,7.00
2018-09-17T15:30:54.541Z,9.08
2018-09-17T15:33:23.691Z,8.70
2018-09-17T15:35:52.913Z,8.08
2018-09-17T15:38:22.282Z,7.72
2018-09-17T15:40:51.474Z,6.85
2018-09-17T15:43:20.683Z,7.42
2018-09-17T15:45:49.880Z,8.23
2018-09-17T15:48:19.078Z,7.47
2018-09-17T15:50:48.315Z,6.50
2018-09-17T15:53:17.365Z,6.92
2018-09-17T15:55:46.620Z,6.60
2018-09-17T15:58:15.744Z,7.22
2018-09-17T16:00:44.761Z,7.45
2018-09-17T16:03:14.411Z,6.72
2018-09-17T16:05:43.519Z,7.00
2018-09-17T16:08:12.701Z,7.62
2018-09-17T16:10:41.898Z,6.65
2018-09-17T16:13:11.011Z,12.25
2018-09-17T16:15:40.215Z,7.85
2018-09-17T16:18:09.318Z,7.30
2018-09-17T16:20:38.506Z,8.45
2018-09-17T16:23:07.757Z,7.70
2018-09-17T16:25:36.975Z,7.28
2018-09-17T16:28:06.309Z,6.72
2018-09-17T16:30:35.529Z,8.63
2018-09-17T16:33:04.813Z,7.03
2018-09-17T16:35:34.006Z,7.65
2018-09-17T16:38:03.108Z,7.65
2018-09-17T16:40:32.334Z,7.47
2018-09-17T16:43:01.442Z,10.93
2018-09-17T16:45:30.534Z,10.90
2018-09-17T16:47:59.698Z,12.63
2018-09-17T16:50:28.886Z,7.83
2018-09-17T16:52:58.047Z,10.05
2018-09-17T16:55:27.213Z,10.10
2018-09-17T16:57:56.395Z,7.85
2018-09-17T17:00:25.428Z,9.55
2018-09-17T17:02:54.539Z,8.85
2018-09-17T17:05:23.762Z,9.63
2018-09-17T17:07:52.957Z,8.20
2018-09-17T17:10:22.200Z,9.63
2018-09-17T17:12:51.457Z,7.20
2018-09-17T17:15:20.639Z,8.70
2018-09-17T17:17:49.813Z,12.47
2018-09-17T17:20:19.078Z,9.13
2018-09-17T17:22:48.381Z,10.08
2018-09-17T17:25:17.377Z,7.87
2018-09-17T17:27:46.632Z,7.90
2018-09-17T17:30:15.955Z,10.50
2018-09-17T17:32:45.134Z,9.68
2018-09-17T17:35:14.825Z,23.07
2018-09-17T17:37:44.112Z,12.20
2018-09-17T17:40:13.485Z,8.35
2018-09-17T17:42:42.754Z,11.57
2018-09-17T17:45:11.950Z,14.03
2018-09-17T17:47:41.114Z,12.68
2018-09-17T17:50:10.270Z,9.55
2018-09-17T17:52:39.461Z,9.45
2018-09-17T17:55:08.722Z,10.48
2018-09-17T17:57:37.872Z,10.90
2018-09-17T18:00:09.019Z,13.25
2018-09-17T18:02:38.096Z,13.85
2018-09-17T18:05:07.351Z,10.38
2018-09-17T18:07:36.841Z,11.63
2018-09-17T18:10:06.466Z,9.20
2018-09-17T18:12:35.606Z,11.10
2018-09-17T18:15:05.104Z,9.93
2018-09-17T18:17:34.423Z,9.48
2018-09-17T18:20:03.649Z,9.20
2018-09-17T18:22:32.858Z,8.70
2018-09-17T18:25:02.337Z,7.30
2018-09-17T18:27:32.583Z,7.25
2018-09-17T18:30:02.676Z,12.88
2018-09-17T18:32:31.777Z,7.33
2018-09-17T18:35:00.997Z,7.60
2018-09-17T18:37:31.154Z,9.58
2018-09-17T18:40:00.318Z,7.70
2018-09-17T18:42:29.467Z,8.85
2018-09-17T18:44:58.669Z,7.65
2018-09-17T18:47:27.644Z,9.65
2018-09-17T18:49:56.846Z,7.85
2018-09-17T18:52:25.896Z,8.40
2018-09-17T18:54:54.996Z,7.35
2018-09-17T18:57:24.418Z,7.20
2018-09-17T18:59:53.852Z,9.45
2018-09-17T19:02:23.786Z,14.43
2018-09-17T19:04:53.987Z,8.60
2018-09-17T19:07:23.954Z,9.50
2018-09-17T19:09:53.037Z,6.95
2018-09-17T19:12:22.588Z,9.28
2018-09-17T19:14:56.851Z,12.25
2018-09-17T19:17:31.073Z,8.45
2018-09-17T19:20:00.511Z,19.20
2018-09-17T19:24:38.285Z,9.35
2018-09-17T19:27:07.442Z,8.15
2018-09-17T19:29:37.591Z,8.58
2018-09-17T19:32:06.807Z,11.75
2018-09-17T19:34:36.065Z,11.30
2018-09-17T19:37:10.886Z,7.28
2018-09-17T19:39:45.208Z,10.53
2018-09-17T19:42:14.279Z,10.13
2018-09-17T19:44:49.909Z,10.08
2018-09-17T19:47:19.131Z,9.13
2018-09-17T19:49:49.119Z,7.78
2018-09-17T19:52:19.252Z,12.30
2018-09-17T19:54:48.899Z,9.35
2018-09-17T19:57:23.253Z,9.13
2018-09-17T19:59:55.320Z,9.50
2018-09-17T20:02:25.074Z,9.80
2018-09-17T20:04:59.392Z,8.80
2018-09-17T20:07:28.677Z,8.63
2018-09-17T20:09:58.581Z,7.47
2018-09-17T20:12:28.399Z,8.70
2018-09-17T20:14:57.743Z,9.20
2018-09-17T20:17:27.085Z,10.80
2018-09-17T20:19:56.222Z,13.13
2018-09-17T20:22:25.512Z,9.83
2018-09-17T20:24:55.094Z,8.85
2018-09-17T20:27:24.392Z,9.08
2018-09-17T20:29:53.663Z,9.48
2018-09-17T20:32:23.816Z,7.78
2018-09-17T20:34:52.999Z,9.25
2018-09-17T20:37:23.217Z,8.78
2018-09-17T20:39:53.247Z,8.85
2018-09-17T20:42:23.817Z,8.58
2018-09-17T20:44:55.031Z,8.88
2018-09-17T20:47:24.429Z,12.10
2018-09-17T20:49:54.023Z,8.78
2018-09-17T20:52:23.174Z,9.23
2018-09-17T20:54:52.575Z,7.80
2018-09-17T20:57:21.967Z,11.22
2018-09-17T20:59:51.214Z,9.28
2018-09-17T21:02:23.248Z,8.13
2018-09-17T21:04:52.511Z,7.65
2018-09-17T21:07:21.759Z,6.87
2018-09-17T21:09:50.982Z,8.53
2018-09-17T21:12:21.461Z,10.35
2018-09-17T21:14:50.542Z,8.98
2018-09-17T21:17:19.743Z,8.15
2018-09-17T21:19:49.031Z,9.48
2018-09-17T21:22:19.117Z,7.75
2018-09-17T21:24:48.265Z,7.87
2018-09-17T21:27:17.520Z,9.20
2018-09-17T21:29:47.909Z,7.87
2018-09-17T21:32:19.238Z,8.33
2018-09-17T21:34:48.556Z,7.62
2018-09-17T21:37:20.136Z,7.40
2018-09-17T21:39:49.275Z,10.93
2018-09-17T21:42:18.531Z,8.93
2018-09-17T21:44:47.553Z,8.38
2018-09-17T21:47:17.436Z,9.03
2018-09-17T21:49:48.033Z,7.65
2018-09-17T21:52:17.384Z,7.17
2018-09-17T21:54:46.562Z,8.70
2018-09-17T21:57:15.734Z,8.13
2018-09-17T21:59:44.808Z,7.65
2018-09-17T22:02:14.074Z,8.60
2018-09-17T22:04:43.470Z,10.55
2018-09-17T22:07:12.706Z,7.83
2018-09-17T22:09:41.963Z,7.75
2018-09-17T22:12:11.153Z,8.75
2018-09-17T22:14:41.459Z,8.20
2018-09-17T22:17:10.594Z,9.90
2018-09-17T22:19:39.735Z,15.40
2018-09-17T22:22:09.099Z,8.18
2018-09-17T22:24:38.492Z,9.50
2018-09-17T22:27:07.919Z,10.78
2018-09-17T22:29:37.034Z,8.38
2018-09-17T22:32:06.190Z,8.33
2018-09-17T22:34:35.340Z,8.13
2018-09-17T22:37:04.407Z,9.83
2018-09-17T22:39:33.702Z,9.95
2018-09-17T22:42:02.966Z,8.03
2018-09-17T22:44:32.245Z,9.75
2018-09-17T22:47:01.415Z,8.03
2018-09-17T22:49:30.723Z,8.78
2018-09-17T22:52:01.040Z,9.90
2018-09-17T22:54:30.197Z,9.40
2018-09-17T22:56:59.317Z,9.08
2018-09-17T22:59:28.433Z,8.48
2018-09-17T23:01:57.650Z,8.30
2018-09-17T23:04:26.842Z,10.55
2018-09-17T23:06:56.010Z,12.33
2018-09-17T23:09:25.447Z,11.95
2018-09-17T23:11:54.609Z,10.80
2018-09-17T23:14:23.801Z,8.63
2018-09-17T23:16:53.046Z,13.48
2018-09-17T23:19:22.720Z,8.68
2018-09-17T23:21:51.950Z,8.45
2018-09-17T23:24:21.158Z,10.13
2018-09-17T23:26:50.271Z,16.80
2018-09-17T23:29:19.348Z,14.07
2018-09-17T23:31:48.421Z,11.22
2018-09-17T23:34:17.674Z,8.95
2018-09-17T23:36:46.854Z,9.98
2018-09-17T23:39:16.059Z,10.72
2018-09-17T23:41:45.163Z,10.53
2018-09-17T23:44:14.377Z,10.20
2018-09-17T23:46:44.235Z,13.03
2018-09-17T23:49:13.377Z,9.75
2018-09-17T23:51:42.693Z,9.25
2018-09-17T23:54:11.801Z,9.40
2018-09-17T23:56:40.918Z,11.18
2018-09-17T23:59:10.159Z,8.30
